• Join FlightAware (Why Join?)
  • Login
  • US Flag 
12:47AM EDT


 

Airport Tracker/Info


-or-


 

Live Flight TrackerFlight Track Log ✈ N830QS ✈ 18-Oct-2013 ✈ KJAX - KMCN

Flight Track Log - Related Links

Times and Time Zones

All times are in EDT time to prevent confusion due to time zone crossing. See the N830QS flight status page for this flight to view local times or setup timezone preferences in your user account.

Time Position Orientation Groundspeed Altitude Reporting Facility
EDT Latitude Longitude Course Direction KTS MPH feet Rate Location/Type
09:44AM 30.5150 -81.6411 70° East 209 241 2,200  Level Jacksonville Center
09:45AM 30.5458 -81.5731 62° Northeast 292 336 5,200 3,600 Climbing Jacksonville Center
09:45AM 30.5542 -81.5683 26° Northeast 294 338 5,900 4,260 Climbing Jacksonville Center
09:46AM 30.6294 -81.5889 347° North 297 342 9,900 3,480 Climbing Jacksonville Center
09:47AM 30.6986 -81.6217 338° Northwest 289 333 12,600 3,120 Climbing Jacksonville Center
09:47AM 30.7111 -81.6264 342° North 289 333 13,100 2,160 Climbing Jacksonville Center
09:48AM 30.7700 -81.6619 333° Northwest 288 331 14,800 1,740 Climbing Jacksonville Center
09:48AM 30.7806 -81.6739 316° Northwest 301 346 14,900 180 Climbing Jacksonville Center
09:49AM 30.8231 -81.7386 307° West 332 382 15,000  Climbing Jacksonville Center
09:50AM 30.8906 -81.8178 315° West 346 398 15,000 360 Level Jacksonville Center
09:51AM 30.9619 -81.8944 317° Northwest 346 398 15,800 480 Climbing Jacksonville Center
09:52AM 31.0358 -81.9736 317° Northwest 351 404 16,000 60 Climbing Jacksonville Center
09:53AM 31.1114 -82.0531 318° Northwest 358 412 16,000  Level Jacksonville Center
09:54AM 31.1850 -82.1325 317° Northwest 358 412 16,000  Level Jacksonville Center
09:55AM 31.2564 -82.2072 318° Northwest 353 406 16,000  Level Jacksonville Center
09:56AM 31.3278 -82.2869 316° Northwest 353 406 16,000  Level Jacksonville Center
09:57AM 31.4011 -82.3594 320° Northwest 353 406 16,000  Level Jacksonville Center
09:58AM 31.4725 -82.4394 316° Northwest 353 406 16,000  Level Jacksonville Center
09:59AM 31.5439 -82.5147 318° Northwest 353 406 16,000  Level Jacksonville Center
10:00AM 31.6211 -82.5900 320° Northwest 353 406 16,000  Level Jacksonville Center
10:01AM 31.6986 -82.6631 321° Northwest 353 406 16,000  Level Jacksonville Center
10:02AM 31.7719 -82.7386 319° Northwest 353 406 16,000 -300 Level Jacksonville Center
10:03AM 31.8492 -82.8119 321° Northwest 358 412 15,500 -900 Descending Jacksonville Center
10:05AM 31.9667 -82.9333 319° Northwest 325 374 13,800 -1,200 Descending Atlanta TRACON
10:06AM 32.0333 -83.0000 320° Northwest 308 354 12,500 -1,560 Descending Atlanta TRACON
10:07AM 32.1000 -83.0667 320° Northwest 279 321 10,600 -1,200 Descending Atlanta TRACON
10:08AM 32.1667 -83.1333 320° Northwest 306 352 10,000 -300 Descending Atlanta TRACON
10:09AM 32.2333 -83.1833 328° Northwest 292 336 10,000  Level Atlanta TRACON
10:10AM 32.2833 -83.2500 312° West 286 329 10,000 -960 Level Atlanta TRACON
10:11AM 32.3500 -83.3000 328° Northwest 266 306 8,100 -1,980 Descending Atlanta TRACON
10:12AM 32.4000 -83.3500 320° Northwest 254 292 6,100 -2,040 Descending Atlanta TRACON
10:13AM 32.4667 -83.4000 328° Northwest 246 283 4,100 -1,800 Descending Atlanta TRACON
10:14AM 32.5167 -83.4333 331° Northwest 229 264 2,600 -780 Descending Atlanta TRACON
10:15AM 32.5667 -83.4667 331° Northwest 192 221 2,600 -300 Level Atlanta TRACON
10:16AM 32.6000 -83.5167 308° West 184 212 2,100 -300 Descending Atlanta TRACON
10:17AM 32.6333 -83.5500 320° Northwest 180 207 2,000 -480 Descending Atlanta TRACON
10:18AM 32.6667 -83.6000 308° West 141 162 1,200 -720 Descending Atlanta TRACON
10:19AM 32.6833 -83.6333 301° West 121 139 600 -600 Descending Atlanta TRACON